Airfield :
LOGIN :

Register | Disclaimer

   EN    FR    IT 

 










Legend :    VFR   Marginal VFR   IFR   Intensive IFR   Very Intensive IFR
Visi :
Ceiling :
>= 8 km
>= 3000ft
5 to 8 km
1000 to 3000 ft
1500m to 5 km
500 to 1000 ft
800 to 1500m
200 to 500 ft
< 800m
< 200 ft
Symbols :   Thunderstorms  Fog  Heavy snow  Heavy precipitations  Wind > 20 kt
SIGMETs :     Misc.  Thunderstorms  Icing  Turbulence  Mountain Waves  Volcanic Ashes






- Airport Elevation : 238 ft
- IATA code : FAB


EGLF - Farnborough

CURRENT METAR :
  • 070950Z 26008KT 9999 SCT028 16/08 Q1008

EXPIRED METARs :
  • 070920Z AUTO 28006KT 250V330 9999 NCD 15/08 Q1008
  • 070850Z AUTO 30005KT 240V360 9999 NCD 14/09 Q1008
  • 070820Z AUTO 30006KT 250V340 9999 NCD 14/09 Q1008
  • 070750Z AUTO 28006KT 230V330 9999 NCD 13/09 Q1008
  • 070720Z AUTO 26005KT 220V300 9999 NCD 12/09 Q1007
  • 070650Z AUTO 29005KT 240V320 9999 NCD 11/08 Q1007

TAF TAF EGLF
Valid from the 07 at 09:00 until the 07 at 18:00 UTC


070758Z 0709/0718 31006KT 9999 FEW035
PROB30
TEMPO 0713/0718 8000 SHRA
ATIS : +44 09063 800 400 (*282)



MET'MAP, your aeronautical weather chart ! - Copyright ORBIFLY December 2007 - Disclaimer

ORBIFLY MET'MAP TEAM :

Programming & Development : Alexandra Zaïnal
Concept & original design : Baudouin d'Aumeries
Assistance for programming : Marc-Olivier Méhu
Technical & hardware support : Manuel Goepfert

Contact : metmap@orbifly.com




SOURCES & CREDITS :

   NOAA